Time,TemperatureF,DewpointF,PressureIn,WindDirection,WindDirectionDegrees,WindSpeedMPH,WindSpeedGustMPH,Humidity,HourlyPrecipIn,Conditions,Clouds,dailyrainin,SoftwareType,DateUTC
2013-06-02 00:02:00,63.0,58.0,-100.00,West,265,5.0,8.0,85,-99.99,,,-99.99,,2013-06-02 05:02:00,
2013-06-02 00:12:00,62.0,58.0,-100.00,West,260,4.0,8.0,85,-99.99,,,-99.99,,2013-06-02 05:12:00,
2013-06-02 00:22:00,62.0,58.0,-100.00,West,260,4.0,8.0,85,-99.99,,,-99.99,,2013-06-02 05:22:00,
2013-06-02 00:32:00,62.0,58.0,-100.00,West,260,6.0,9.0,86,-99.99,,,-99.99,,2013-06-02 05:32:00,
2013-06-02 00:42:00,62.0,58.0,-100.00,West,260,7.0,10.0,86,-99.99,,,-99.99,,2013-06-02 05:42:00,
2013-06-02 00:52:00,62.0,58.0,-100.00,West,260,7.0,10.0,86,-99.99,,,-99.99,,2013-06-02 05:52:00,
2013-06-02 01:01:00,62.0,57.0,-100.00,West,260,7.0,11.0,86,-99.99,,,-99.99,,2013-06-02 06:01:00,
2013-06-02 01:12:00,62.0,57.0,-100.00,West,260,6.0,10.0,86,-99.99,,,-99.99,,2013-06-02 06:12:00,
2013-06-02 01:21:00,62.0,57.0,-100.00,West,260,6.0,10.0,86,-99.99,,,-99.99,,2013-06-02 06:21:00,
2013-06-02 01:32:00,61.0,57.0,-100.00,West,280,4.0,9.0,87,-99.99,,,-99.99,,2013-06-02 06:32:00,
2013-06-02 01:42:00,61.0,57.0,-100.00,West,265,5.0,7.0,88,-99.99,,,-99.99,,2013-06-02 06:42:00,
2013-06-02 01:52:00,61.0,57.0,-100.00,West,265,5.0,7.0,88,-99.99,,,-99.99,,2013-06-02 06:52:00,
2013-06-02 02:01:00,61.0,58.0,-100.00,West,270,8.0,11.0,89,-99.99,,,-99.99,,2013-06-02 07:01:00,
2013-06-02 02:11:00,61.0,58.0,-100.00,West,280,9.0,13.0,88,-99.99,,,-99.99,,2013-06-02 07:11:00,
2013-06-02 02:21:00,61.0,58.0,-100.00,West,280,9.0,13.0,88,-99.99,,,-99.99,,2013-06-02 07:21:00,
2013-06-02 02:32:00,61.0,58.0,-100.00,West,275,6.0,12.0,90,-99.99,,,-99.99,,2013-06-02 07:32:00,
2013-06-02 02:42:00,61.0,58.0,-100.00,WNW,295,6.0,11.0,89,-99.99,,,-99.99,,2013-06-02 07:42:00,
2013-06-02 02:52:00,61.0,58.0,-100.00,WNW,295,6.0,11.0,89,-99.99,,,-99.99,,2013-06-02 07:52:00,
2013-06-02 03:01:00,61.0,57.0,-100.00,West,275,6.0,12.0,88,-99.99,,,-99.99,,2013-06-02 08:01:00,
2013-06-02 03:11:00,61.0,57.0,-100.00,WNW,285,7.0,14.0,86,-99.99,,,-99.99,,2013-06-02 08:11:00,
2013-06-02 03:21:00,61.0,57.0,-100.00,WNW,285,7.0,14.0,86,-99.99,,,-99.99,,2013-06-02 08:21:00,
2013-06-02 03:32:00,60.0,56.0,-100.00,WNW,285,6.0,14.0,86,-99.99,,,-99.99,,2013-06-02 08:32:00,
2013-06-02 03:41:00,60.0,56.0,-100.00,WNW,290,9.0,14.0,86,-99.99,,,-99.99,,2013-06-02 08:41:00,
2013-06-02 03:52:00,60.0,56.0,-100.00,WNW,290,9.0,14.0,86,-99.99,,,-99.99,,2013-06-02 08:52:00,
2013-06-02 04:01:00,60.0,56.0,-100.00,WNW,295,6.0,11.0,88,-99.99,,,-99.99,,2013-06-02 09:01:00,
2013-06-02 04:11:00,60.0,57.0,-100.00,WNW,290,8.0,16.0,88,-99.99,,,-99.99,,2013-06-02 09:11:00,
2013-06-02 04:21:00,60.0,57.0,-100.00,WNW,290,8.0,16.0,88,-99.99,,,-99.99,,2013-06-02 09:21:00,
2013-06-02 04:33:00,59.0,53.0,-100.00,NW,315,13.0,28.0,79,-99.99,,,-99.99,,2013-06-02 09:33:00,
2013-06-02 04:42:00,58.0,51.0,-100.00,NW,310,13.0,28.0,77,-99.99,,,-99.99,,2013-06-02 09:42:00,
2013-06-02 04:53:00,58.0,51.0,-100.00,NW,310,13.0,28.0,77,-99.99,,,-99.99,,2013-06-02 09:53:00,
2013-06-02 05:02:00,58.0,51.0,-100.00,WNW,300,14.0,24.0,78,-99.99,,,-99.99,,2013-06-02 10:02:00,
2013-06-02 05:12:00,57.0,50.0,-100.00,NW,305,11.0,21.0,78,-99.99,,,-99.99,,2013-06-02 10:12:00,
2013-06-02 05:22:00,57.0,50.0,-100.00,NW,305,11.0,21.0,78,-99.99,,,-99.99,,2013-06-02 10:22:00,
2013-06-02 05:32:00,56.0,49.0,-100.00,NW,310,14.0,20.0,77,-99.99,,,-99.99,,2013-06-02 10:32:00,
2013-06-02 05:42:00,55.0,48.0,-100.00,WNW,290,14.0,23.0,76,-99.99,,,-99.99,,2013-06-02 10:42:00,
2013-06-02 05:52:00,55.0,48.0,-100.00,WNW,290,14.0,23.0,76,-99.99,,,-99.99,,2013-06-02 10:52:00,
2013-06-02 06:02:00,54.0,48.0,-100.00,NW,315,10.0,17.0,78,-99.99,,,-99.99,,2013-06-02 11:02:00,
2013-06-02 06:12:00,54.0,46.0,-100.00,NW,315,11.0,17.0,75,-99.99,,,-99.99,,2013-06-02 11:12:00,
2013-06-02 06:22:00,54.0,46.0,-100.00,NW,315,11.0,17.0,75,-99.99,,,-99.99,,2013-06-02 11:22:00,
2013-06-02 06:32:00,54.0,46.0,-100.00,NW,310,10.0,18.0,74,-99.99,,,-99.99,,2013-06-02 11:32:00,
2013-06-02 06:42:00,54.0,46.0,-100.00,NW,325,9.0,15.0,75,-99.99,,,-99.99,,2013-06-02 11:42:00,
2013-06-02 06:52:00,54.0,46.0,-100.00,NW,325,9.0,15.0,75,-99.99,,,-99.99,,2013-06-02 11:52:00,
2013-06-02 07:01:00,54.0,46.0,-100.00,NW,315,8.0,14.0,75,-99.99,,,-99.99,,2013-06-02 12:01:00,
2013-06-02 07:11:00,54.0,47.0,-100.00,NNW,330,8.0,14.0,77,-99.99,,,-99.99,,2013-06-02 12:11:00,
2013-06-02 07:21:00,54.0,47.0,-100.00,NNW,330,8.0,14.0,77,-99.99,,,-99.99,,2013-06-02 12:21:00,
2013-06-02 07:32:00,54.0,47.0,-100.00,NW,325,9.0,12.0,76,-99.99,,,-99.99,,2013-06-02 12:32:00,
2013-06-02 07:42:00,54.0,47.0,-100.00,NW,320,7.0,12.0,77,-99.99,,,-99.99,,2013-06-02 12:42:00,
2013-06-02 07:52:00,54.0,47.0,-100.00,NW,320,7.0,12.0,77,-99.99,,,-99.99,,2013-06-02 12:52:00,
2013-06-02 08:01:00,54.0,46.0,-100.00,NW,320,8.0,12.0,75,-99.99,,,-99.99,,2013-06-02 13:01:00,
2013-06-02 08:11:00,54.0,46.0,-100.00,NNW,340,10.0,15.0,75,-99.99,,,-99.99,,2013-06-02 13:11:00,
2013-06-02 08:21:00,54.0,46.0,-100.00,NNW,340,10.0,15.0,75,-99.99,,,-99.99,,2013-06-02 13:21:00,
2013-06-02 08:32:00,54.0,46.0,-100.00,NW,325,8.0,13.0,75,-99.99,,,-99.99,,2013-06-02 13:32:00,
2013-06-02 08:42:00,54.0,46.0,-100.00,NW,320,11.0,17.0,74,-99.99,,,-99.99,,2013-06-02 13:42:00,
2013-06-02 08:52:00,54.0,46.0,-100.00,NW,320,11.0,17.0,74,-99.99,,,-99.99,,2013-06-02 13:52:00,
2013-06-02 09:02:00,54.0,46.0,-100.00,NNW,330,9.0,14.0,74,-99.99,,,-99.99,,2013-06-02 14:02:00,
2013-06-02 09:11:00,53.0,45.0,-100.00,NNW,330,10.0,16.0,72,-99.99,,,-99.99,,2013-06-02 14:11:00,
2013-06-02 09:21:00,53.0,45.0,-100.00,NNW,330,10.0,16.0,72,-99.99,,,-99.99,,2013-06-02 14:21:00,
2013-06-02 09:32:00,53.0,44.0,-100.00,NW,325,11.0,16.0,71,-99.99,,,-99.99,,2013-06-02 14:32:00,
2013-06-02 09:42:00,53.0,44.0,-100.00,NW,310,10.0,19.0,70,-99.99,,,-99.99,,2013-06-02 14:42:00,
2013-06-02 09:52:00,53.0,44.0,-100.00,NW,310,10.0,19.0,70,-99.99,,,-99.99,,2013-06-02 14:52:00,
2013-06-02 10:01:00,54.0,43.0,-100.00,NNW,330,13.0,17.0,67,-99.99,,,-99.99,,2013-06-02 15:01:00,
2013-06-02 10:11:00,55.0,43.0,-100.00,NNW,340,10.0,19.0,64,-99.99,,,-99.99,,2013-06-02 15:11:00,
2013-06-02 10:21:00,55.0,43.0,-100.00,NNW,340,10.0,19.0,64,-99.99,,,-99.99,,2013-06-02 15:21:00,
2013-06-02 10:33:00,54.0,43.0,-100.00,NW,315,11.0,20.0,65,-99.99,,,-99.99,,2013-06-02 15:33:00,
2013-06-02 10:43:00,54.0,43.0,-100.00,NW,320,13.0,21.0,68,-99.99,,,-99.99,,2013-06-02 15:43:00,
2013-06-02 10:53:00,54.0,43.0,-100.00,NW,320,13.0,21.0,68,-99.99,,,-99.99,,2013-06-02 15:53:00,
2013-06-02 11:03:00,53.0,42.0,-100.00,NW,315,14.0,21.0,66,-99.99,,,-99.99,,2013-06-02 16:03:00,
2013-06-02 11:13:00,53.0,41.0,-100.00,NW,325,11.0,21.0,64,-99.99,,,-99.99,,2013-06-02 16:13:00,
2013-06-02 11:23:00,53.0,41.0,-100.00,NW,325,11.0,21.0,64,-99.99,,,-99.99,,2013-06-02 16:23:00,
2013-06-02 11:33:00,54.0,42.0,-100.00,NNW,340,11.0,18.0,65,-99.99,,,-99.99,,2013-06-02 16:33:00,
2013-06-02 11:42:00,53.0,42.0,-100.00,NNW,330,15.0,20.0,64,-99.99,,,-99.99,,2013-06-02 16:42:00,
2013-06-02 11:53:00,53.0,42.0,-100.00,NNW,330,15.0,20.0,64,-99.99,,,-99.99,,2013-06-02 16:53:00,
2013-06-02 12:02:00,54.0,41.0,-100.00,NNW,335,14.0,20.0,63,-99.99,,,-99.99,,2013-06-02 17:02:00,
2013-06-02 12:12:00,54.0,41.0,-100.00,NNW,330,14.0,19.0,62,-99.99,,,-99.99,,2013-06-02 17:12:00,
2013-06-02 12:23:00,54.0,41.0,-100.00,NNW,330,14.0,19.0,62,-99.99,,,-99.99,,2013-06-02 17:23:00,
2013-06-02 12:32:00,54.0,43.0,-100.00,WNW,300,8.0,19.0,65,-99.99,,,-99.99,,2013-06-02 17:32:00,
2013-06-02 12:42:00,55.0,42.0,-100.00,NW,325,11.0,18.0,62,-99.99,,,-99.99,,2013-06-02 17:42:00,
2013-06-02 12:52:00,55.0,42.0,-100.00,NW,325,11.0,18.0,62,-99.99,,,-99.99,,2013-06-02 17:52:00,
2013-06-02 13:02:00,55.0,42.0,-100.00,NNW,330,11.0,20.0,60,-99.99,,,-99.99,,2013-06-02 18:02:00,
2013-06-02 13:11:00,55.0,43.0,-100.00,North,10,9.0,19.0,62,-99.99,,,-99.99,,2013-06-02 18:11:00,
2013-06-02 13:21:00,55.0,43.0,-100.00,North,10,9.0,19.0,62,-99.99,,,-99.99,,2013-06-02 18:21:00,
2013-06-02 13:32:00,56.0,43.0,-100.00,North,5,10.0,17.0,61,-99.99,,,-99.99,,2013-06-02 18:32:00,
2013-06-02 13:42:00,56.0,43.0,-100.00,NW,315,9.0,15.0,61,-99.99,,,-99.99,,2013-06-02 18:42:00,
2013-06-02 13:52:00,56.0,43.0,-100.00,NW,315,9.0,15.0,61,-99.99,,,-99.99,,2013-06-02 18:52:00,
2013-06-02 14:01:00,56.0,43.0,-100.00,NW,325,9.0,15.0,61,-99.99,,,-99.99,,2013-06-02 19:01:00,
2013-06-02 14:11:00,56.0,42.0,-100.00,NNE,25,10.0,15.0,59,-99.99,,,-99.99,,2013-06-02 19:11:00,
2013-06-02 14:21:00,56.0,42.0,-100.00,NNE,25,10.0,15.0,59,-99.99,,,-99.99,,2013-06-02 19:21:00,
2013-06-02 14:32:00,57.0,42.0,-100.00,North,10,9.0,14.0,59,-99.99,,,-99.99,,2013-06-02 19:32:00,
2013-06-02 14:42:00,58.0,45.0,-100.00,NNW,345,5.0,17.0,62,-99.99,,,-99.99,,2013-06-02 19:42:00,
2013-06-02 14:52:00,58.0,45.0,-100.00,NNW,345,5.0,17.0,62,-99.99,,,-99.99,,2013-06-02 19:52:00,
2013-06-02 15:02:00,58.0,42.0,-100.00,North,355,3.0,11.0,57,-99.99,,,-99.99,,2013-06-02 20:02:00,
2013-06-02 15:11:00,58.0,43.0,-100.00,NE,50,7.0,14.0,57,-99.99,,,-99.99,,2013-06-02 20:11:00,
2013-06-02 15:22:00,58.0,43.0,-100.00,NE,50,7.0,14.0,57,-99.99,,,-99.99,,2013-06-02 20:22:00,
2013-06-02 15:32:00,58.0,43.0,-100.00,NE,35,4.0,11.0,58,-99.99,,,-99.99,,2013-06-02 20:32:00,
2013-06-02 15:42:00,59.0,44.0,-100.00,North,5,1.0,14.0,58,-99.99,,,-99.99,,2013-06-02 20:42:00,
2013-06-02 15:52:00,59.0,44.0,-100.00,North,5,1.0,14.0,58,-99.99,,,-99.99,,2013-06-02 20:52:00,
2013-06-02 16:01:00,59.0,43.0,-100.00,NW,320,5.0,14.0,56,-99.99,,,-99.99,,2013-06-02 21:01:00,
2013-06-02 16:12:00,59.0,42.0,-100.00,North,355,8.0,12.0,54,-99.99,,,-99.99,,2013-06-02 21:12:00,
2013-06-02 16:21:00,59.0,42.0,-100.00,North,355,8.0,12.0,54,-99.99,,,-99.99,,2013-06-02 21:21:00,
2013-06-02 16:33:00,58.0,43.0,-100.00,NW,325,8.0,11.0,56,-99.99,,,-99.99,,2013-06-02 21:33:00,
2013-06-02 16:42:00,59.0,43.0,-100.00,North,5,4.0,12.0,56,-99.99,,,-99.99,,2013-06-02 21:42:00,
2013-06-02 16:53:00,59.0,43.0,-100.00,North,5,4.0,12.0,56,-99.99,,,-99.99,,2013-06-02 21:53:00,
2013-06-02 17:03:00,60.0,44.0,-100.00,NE,40,3.0,8.0,57,-99.99,,,-99.99,,2013-06-02 22:03:00,
2013-06-02 17:12:00,59.0,44.0,-100.00,NE,55,4.0,7.0,57,-99.99,,,-99.99,,2013-06-02 22:12:00,
2013-06-02 17:23:00,59.0,44.0,-100.00,NE,55,4.0,7.0,57,-99.99,,,-99.99,,2013-06-02 22:23:00,
2013-06-02 17:33:00,59.0,44.0,-100.00,NW,320,4.0,7.0,57,-99.99,,,-99.99,,2013-06-02 22:33:00,
2013-06-02 17:42:00,58.0,43.0,-100.00,West,275,2.0,6.0,56,-99.99,,,-99.99,,2013-06-02 22:42:00,
2013-06-02 17:53:00,58.0,43.0,-100.00,West,275,2.0,6.0,56,-99.99,,,-99.99,,2013-06-02 22:53:00,
2013-06-02 18:02:00,59.0,43.0,-100.00,NNE,20,4.0,9.0,56,-99.99,,,-99.99,,2013-06-02 23:02:00,
2013-06-02 18:12:00,59.0,44.0,-100.00,SSE,150,2.0,4.0,58,-99.99,,,-99.99,,2013-06-02 23:12:00,
2013-06-02 18:22:00,59.0,44.0,-100.00,SSE,150,2.0,4.0,58,-99.99,,,-99.99,,2013-06-02 23:22:00,
2013-06-02 18:32:00,59.0,44.0,-100.00,North,10,2.0,6.0,57,-99.99,,,-99.99,,2013-06-02 23:32:00,
2013-06-02 18:42:00,60.0,44.0,-100.00,NW,320,2.0,4.0,56,-99.99,,,-99.99,,2013-06-02 23:42:00,
2013-06-02 18:52:00,60.0,44.0,-100.00,NW,320,2.0,4.0,56,-99.99,,,-99.99,,2013-06-02 23:52:00,
2013-06-02 19:01:00,59.0,43.0,-100.00,NE,50,0.0,6.0,55,-99.99,,,-99.99,,2013-06-03 00:01:00,
2013-06-02 19:12:00,59.0,44.0,-100.00,East,95,5.0,6.0,57,-99.99,,,-99.99,,2013-06-03 00:12:00,
2013-06-02 19:22:00,59.0,44.0,-100.00,East,95,5.0,6.0,57,-99.99,,,-99.99,,2013-06-03 00:22:00,
2013-06-02 19:32:00,59.0,44.0,-100.00,East,95,5.0,6.0,57,-99.99,,,-99.99,,2013-06-03 00:32:00,
2013-06-02 19:42:00,59.0,44.0,-100.00,SE,145,3.0,4.0,56,-99.99,,,-99.99,,2013-06-03 00:42:00,
2013-06-02 19:52:00,59.0,44.0,-100.00,SE,145,3.0,4.0,56,-99.99,,,-99.99,,2013-06-03 00:52:00,
2013-06-02 20:01:00,59.0,44.0,-100.00,ESE,115,1.0,5.0,58,-99.99,,,-99.99,,2013-06-03 01:01:00,
2013-06-02 20:11:00,58.0,44.0,-100.00,SE,135,3.0,6.0,58,-99.99,,,-99.99,,2013-06-03 01:11:00,
2013-06-02 20:21:00,58.0,44.0,-100.00,SE,135,3.0,6.0,58,-99.99,,,-99.99,,2013-06-03 01:21:00,
2013-06-02 20:32:00,57.0,43.0,-100.00,ESE,120,4.0,6.0,60,-99.99,,,-99.99,,2013-06-03 01:32:00,
2013-06-02 20:42:00,56.0,44.0,-100.00,East,85,3.0,6.0,64,-99.99,,,-99.99,,2013-06-03 01:42:00,
2013-06-02 20:52:00,56.0,44.0,-100.00,East,85,3.0,6.0,64,-99.99,,,-99.99,,2013-06-03 01:52:00,
2013-06-02 21:02:00,55.0,45.0,-100.00,East,85,3.0,4.0,68,-99.99,,,-99.99,,2013-06-03 02:02:00,
2013-06-02 21:12:00,55.0,45.0,-100.00,East,100,2.0,4.0,69,-99.99,,,-99.99,,2013-06-03 02:12:00,
2013-06-02 21:22:00,55.0,45.0,-100.00,East,100,2.0,4.0,69,-99.99,,,-99.99,,2013-06-03 02:22:00,
2013-06-02 21:32:00,53.0,45.0,-100.00,ENE,75,3.0,3.0,72,-99.99,,,-99.99,,2013-06-03 02:32:00,
2013-06-02 21:42:00,53.0,44.0,-100.00,ESE,110,2.0,4.0,71,-99.99,,,-99.99,,2013-06-03 02:42:00,
2013-06-02 21:52:00,53.0,44.0,-100.00,ESE,110,2.0,4.0,71,-99.99,,,-99.99,,2013-06-03 02:52:00,
2013-06-02 22:02:00,53.0,44.0,-100.00,East,85,3.0,4.0,72,-99.99,,,-99.99,,2013-06-03 03:02:00,
2013-06-02 22:12:00,53.0,44.0,-100.00,ENE,75,1.0,2.0,72,-99.99,,,-99.99,,2013-06-03 03:12:00,
2013-06-02 22:22:00,53.0,44.0,-100.00,ENE,75,1.0,2.0,72,-99.99,,,-99.99,,2013-06-03 03:22:00,
2013-06-02 22:33:00,52.0,44.0,-100.00,ENE,75,0.0,1.0,73,-99.99,,,-99.99,,2013-06-03 03:33:00,
2013-06-02 22:43:00,51.0,45.0,-100.00,ENE,75,0.0,0.0,79,-99.99,,,-99.99,,2013-06-03 03:43:00,
2013-06-02 22:53:00,51.0,45.0,-100.00,ENE,75,0.0,0.0,79,-99.99,,,-99.99,,2013-06-03 03:53:00,
2013-06-02 23:03:00,50.0,44.0,-100.00,ENE,65,1.0,1.0,81,-99.99,,,-99.99,,2013-06-03 04:03:00,
2013-06-02 23:13:00,49.0,44.0,-100.00,NNW,330,0.0,1.0,84,-99.99,,,-99.99,,2013-06-03 04:13:00,
2013-06-02 23:23:00,49.0,44.0,-100.00,NNW,330,0.0,1.0,84,-99.99,,,-99.99,,2013-06-03 04:23:00,
2013-06-02 23:33:00,48.0,44.0,-100.00,NNW,330,0.0,2.0,86,-99.99,,,-99.99,,2013-06-03 04:33:00,
2013-06-02 23:42:00,49.0,45.0,-100.00,NW,310,0.0,1.0,86,-99.99,,,-99.99,,2013-06-03 04:42:00,
2013-06-02 23:53:00,49.0,45.0,-100.00,NW,310,0.0,1.0,86,-99.99,,,-99.99,,2013-06-03 04:53:00,